Terminal Aerodrome Forecast
Issued by NWS Huntsville, AL

Home | Current Version | Previous Version | Text Only | Print | Product List | Glossary On
Versions: 1 2 3 4 5 6 7 8 9 10 11 12 13 14 15 16 17 18 19 20 21 22 23 24
164
FTUS44 KHUN 160525
TAFMSL
TAF
KMSL 160525Z 1606/1706 VRB02KT P6SM SCT250
     FM161500 20007KT P6SM SCT250
     FM170000 VRB03KT P6SM BKN250=

USA.gov is the U.S. government's official web portal to all federal, state and local government web resources and services.